• Join FlightAware (Why Join?)
  • Login
  • US Flag GB Flag 
00:21 EDT


 

Airport Tracker/Info


-or-


 

Live Flight TrackerFlight Track Log ✈ SWA311 ✈ 21-Apr-2013 ✈ KBWI - KRDU

Flight Track Log - Related Links

Times and Time Zones

All times are in EDT time to prevent confusion due to time zone crossing. See the SWA311 flight status page for this flight to view local times or setup timezone preferences in your user account.

Time Position Orientation Groundspeed Altitude Reporting Facility
EDT Latitude Longitude Course Direction KTS MPH feet Rate Location/Type
19:58 39.1000 -76.6000 142° Southeast 206 237 5,100  Level Potomac TRACON
19:59 39.0500 -76.5667 153° Southeast 249 287 8,100 3,240 Climbing Potomac TRACON
20:00 38.9833 -76.5000 142° Southeast 296 341 11,600 1,740 Climbing Potomac TRACON
20:02 38.7908 -76.5425 190° South 317 365 14,000 840 Climbing Washington Center
20:03 38.6864 -76.7064 184° South  Level FlightAware Approximate
20:03 38.7131 -76.6028 211° Southwest 317 365 14,500  Level Washington Center
20:04 38.6333 -76.6681 213° Southwest 336 387 17,900 3,240 Climbing Washington Center
20:05 38.5475 -76.7225 206° Southwest 348 400 21,000 2,040 Climbing Washington Center
20:06 38.4433 -76.7131 176° South 339 390 22,000 480 Climbing Washington Center
20:07 38.3392 -76.7008 175° South 359 413 22,000  Level Washington Center
20:08 38.2267 -76.6806 172° South 369 425 22,000  Level Washington Center
20:09 38.1242 -76.7031 190° South 375 432 22,000  Level Washington Center
20:10 38.0300 -76.7542 203° Southwest 365 420 22,000  Level Washington Center
20:11 37.9378 -76.8028 203° Southwest 370 426 22,000  Level Washington Center
20:12 37.8433 -76.8539 203° Southwest 370 426 22,000  Level Washington Center
20:13 37.7572 -76.8972 202° Southwest 375 432 22,000  Level Washington Center
20:14 37.6650 -76.9456 203° Southwest 375 432 22,000  Level Washington Center
20:15 37.5686 -76.9936 202° Southwest 375 432 22,000  Level Washington Center
20:16 37.4636 -77.0492 203° Southwest 375 432 22,000  Level Washington Center
20:17 37.3756 -77.0944 202° Southwest 359 413 22,000  Level Washington Center
20:18 37.2850 -77.1475 205° Southwest 359 413 22,000  Level Washington Center
20:19 37.2008 -77.2058 209° Southwest 353 406 22,000  Level Washington Center
20:20 37.1144 -77.2667 209° Southwest 353 406 22,000  Level Washington Center
20:21 37.0303 -77.3272 210° Southwest 353 406 22,000  Level Washington Center
20:22 36.9481 -77.3878 210° Southwest 353 406 22,000  Level Washington Center
20:23 36.8636 -77.4533 212° Southwest 358 412 22,000  Level Washington Center
20:24 36.7792 -77.5161 211° Southwest 358 412 22,000  Level Washington Center
20:25 36.6947 -77.5761 210° Southwest 358 412 22,000  Level Washington Center
20:26 36.6100 -77.6414 212° Southwest 358 412 22,000  Level Washington Center
20:27 36.5256 -77.7036 211° Southwest 363 418 22,000  Level Washington Center
20:28 36.4572 -77.7897 225° Southwest 358 412 22,000  Level Washington Center
20:29 36.3972 -77.8706 227° Southwest 358 412 22,000 -960 Level Washington Center
20:30 36.3308 -77.9589 227° Southwest 358 412 20,100 -2,040 Descending Washington Center
20:31 36.2644 -78.0469 227° Southwest 358 412 18,000 -2,520 Descending Washington Center
20:32 36.1917 -78.1375 225° Southwest 350 403 15,300 -2,520 Descending Washington Center
20:33 36.1394 -78.2308 235° Southwest 334 384 13,200 -2,220 Descending Washington Center
20:34 36.0936 -78.3269 239° Southwest 325 374 10,800 -1,680 Descending Washington Center
20:35 36.0519 -78.4156 240° Southwest 323 372 9,800 -1,200 Descending Washington Center
20:36 36.0081 -78.5011 238° Southwest 270 311 8,500 -960 Descending Washington Center
20:37 35.9564 -78.5686 227° Southwest 245 282 8,000 -900 Descending Washington Center
20:38 35.9069 -78.6231 222° Southwest 227 261 6,800 -1,020 Descending Washington Center
20:39 35.8642 -78.6625 217° Southwest 239 275 6,000 -1,140 Descending Washington Center
20:40 35.8106 -78.7219 222° Southwest 234 269 4,600 -1,260 Descending Washington Center
20:42 35.7544 -78.7861 223° Southwest 235 270 3,300 -840 Descending Washington Center
20:43 35.7633 -78.8531 279° West 221 254 2,800 -540 Descending Washington Center
20:44 35.8064 -78.8728 340° North 151 174 2,300 -780 Descending Washington Center
20:45 35.8303 -78.8381 50° Northeast 107 123 1,300 -840 Descending Washington Center
20:46 35.8561 -78.8108 40° Northeast 131 151 700 -600 Descending Washington Center
20:48 35.8667 -78.7833 25° Northeast  Level FlightAware Approximate